Milton, Kansas
Current Conditions -  °F | °C
As of 12:53 AM on Monday 24 Nov 2014 (Local Time) from KICT Reporting Station
Scattered Clouds Scattered Clouds  
Wind Chill: 32°   Ceiling: Unl
Heat Index: 41°   Visibility: 10mi
Dew Point: 25°   Wind: 18mph
Humidity: 53%   Direction: 320°NW
Pressure: 29.7"   Gusts: NA
Location:  37.43°N, 97.77°W
Report Text: KICT 240653Z 32016KT 10SM FEW150 SCT200 05/M04 A2970 RMK AO2 SLP058 T00501039 $
Loading
Personal Weather Stations






























Interactive Weather Map New forecast layout! Learn more

10-Day Weather Forecast

Advertisements
Track Severe Weather on mobile